sensor_id;sensor_type;location;lat;lon;timestamp;temperature;humidity
53152;DHT22;39234;53.158;6.322;2023-04-29T00:02:01;8.70;99.90
53152;DHT22;39234;53.158;6.322;2023-04-29T00:04:27;8.50;99.90
53152;DHT22;39234;53.158;6.322;2023-04-29T00:06:53;8.70;99.90
53152;DHT22;39234;53.158;6.322;2023-04-29T00:09:19;8.50;99.90
53152;DHT22;39234;53.158;6.322;2023-04-29T00:11:45;8.60;99.90
53152;DHT22;39234;53.158;6.322;2023-04-29T00:14:12;9.60;99.90
53152;DHT22;39234;53.158;6.322;2023-04-29T00:16:38;8.40;99.90
53152;DHT22;39234;53.158;6.322;2023-04-29T00:19:04;8.40;99.90
53152;DHT22;39234;53.158;6.322;2023-04-29T00:21:30;8.40;99.90
53152;DHT22;39234;53.158;6.322;2023-04-29T00:23:58;8.30;99.90
53152;DHT22;39234;53.158;6.322;2023-04-29T00:26:24;8.30;99.90
53152;DHT22;39234;53.158;6.322;2023-04-29T00:28:50;10.20;99.90
53152;DHT22;39234;53.158;6.322;2023-04-29T00:31:16;8.70;99.90
53152;DHT22;39234;53.158;6.322;2023-04-29T00:33:41;9.80;99.90
53152;DHT22;39234;53.158;6.322;2023-04-29T00:36:08;8.40;99.90
53152;DHT22;39234;53.158;6.322;2023-04-29T00:38:34;9.40;99.90
53152;DHT22;39234;53.158;6.322;2023-04-29T00:41:00;8.30;99.90
53152;DHT22;39234;53.158;6.322;2023-04-29T00:43:25;8.50;99.90
53152;DHT22;39234;53.158;6.322;2023-04-29T00:45:51;8.30;99.90
53152;DHT22;39234;53.158;6.322;2023-04-29T00:48:17;8.30;99.90
53152;DHT22;39234;53.158;6.322;2023-04-29T00:50:42;8.40;99.90
53152;DHT22;39234;53.158;6.322;2023-04-29T00:53:10;8.40;99.90
53152;DHT22;39234;53.158;6.322;2023-04-29T00:55:37;8.50;99.90
53152;DHT22;39234;53.158;6.322;2023-04-29T00:58:03;8.20;99.90
53152;DHT22;39234;53.158;6.322;2023-04-29T01:00:30;8.40;99.90
53152;DHT22;39234;53.158;6.322;2023-04-29T01:02:56;8.30;99.90
53152;DHT22;39234;53.158;6.322;2023-04-29T01:05:24;8.30;99.90
53152;DHT22;39234;53.158;6.322;2023-04-29T01:08:07;8.40;99.90
53152;DHT22;39234;53.158;6.322;2023-04-29T01:10:40;8.40;99.90
53152;DHT22;39234;53.158;6.322;2023-04-29T01:13:28;8.40;99.90
53152;DHT22;39234;53.158;6.322;2023-04-29T01:16:02;8.30;99.90
53152;DHT22;39234;53.158;6.322;2023-04-29T01:18:41;9.30;99.90
53152;DHT22;39234;53.158;6.322;2023-04-29T01:21:09;8.30;99.90
53152;DHT22;39234;53.158;6.322;2023-04-29T01:23:35;8.30;99.90
53152;DHT22;39234;53.158;6.322;2023-04-29T01:26:01;8.20;99.90
53152;DHT22;39234;53.158;6.322;2023-04-29T01:29:01;8.20;99.90
53152;DHT22;39234;53.158;6.322;2023-04-29T01:31:52;8.30;99.90
53152;DHT22;39234;53.158;6.322;2023-04-29T01:34:29;8.50;99.90
53152;DHT22;39234;53.158;6.322;2023-04-29T01:37:13;8.10;99.90
53152;DHT22;39234;53.158;6.322;2023-04-29T01:44:48;8.20;99.90
53152;DHT22;39234;53.158;6.322;2023-04-29T01:47:15;8.30;99.90
53152;DHT22;39234;53.158;6.322;2023-04-29T01:49:41;8.20;99.90
53152;DHT22;39234;53.158;6.322;2023-04-29T01:52:07;8.40;99.90
53152;DHT22;39234;53.158;6.322;2023-04-29T01:54:33;8.20;99.90
53152;DHT22;39234;53.158;6.322;2023-04-29T01:57:02;9.90;99.90
53152;DHT22;39234;53.158;6.322;2023-04-29T01:59:29;8.20;99.90
53152;DHT22;39234;53.158;6.322;2023-04-29T02:01:55;8.10;99.90
53152;DHT22;39234;53.158;6.322;2023-04-29T02:04:23;7.90;99.90
53152;DHT22;39234;53.158;6.322;2023-04-29T02:06:50;7.80;99.90
53152;DHT22;39234;53.158;6.322;2023-04-29T02:09:17;7.60;99.90
53152;DHT22;39234;53.158;6.322;2023-04-29T02:11:43;7.50;99.90
53152;DHT22;39234;53.158;6.322;2023-04-29T02:14:09;7.60;99.90
53152;DHT22;39234;53.158;6.322;2023-04-29T02:16:34;7.40;99.90
53152;DHT22;39234;53.158;6.322;2023-04-29T02:19:00;7.40;99.90
53152;DHT22;39234;53.158;6.322;2023-04-29T02:21:26;6.80;99.90
53152;DHT22;39234;53.158;6.322;2023-04-29T02:23:52;7.30;99.90
53152;DHT22;39234;53.158;6.322;2023-04-29T02:26:19;7.50;99.90
53152;DHT22;39234;53.158;6.322;2023-04-29T02:28:44;7.50;99.90
53152;DHT22;39234;53.158;6.322;2023-04-29T02:31:10;8.00;99.90
53152;DHT22;39234;53.158;6.322;2023-04-29T02:33:37;7.30;99.90
53152;DHT22;39234;53.158;6.322;2023-04-29T02:36:03;7.30;99.90
53152;DHT22;39234;53.158;6.322;2023-04-29T02:38:29;7.30;99.90
53152;DHT22;39234;53.158;6.322;2023-04-29T02:40:55;7.30;99.90
53152;DHT22;39234;53.158;6.322;2023-04-29T02:43:21;7.30;99.90
53152;DHT22;39234;53.158;6.322;2023-04-29T02:45:46;7.50;99.90
53152;DHT22;39234;53.158;6.322;2023-04-29T02:48:12;7.60;99.90
53152;DHT22;39234;53.158;6.322;2023-04-29T02:50:38;7.60;99.90
53152;DHT22;39234;53.158;6.322;2023-04-29T02:53:04;7.50;99.90
53152;DHT22;39234;53.158;6.322;2023-04-29T02:55:29;9.50;99.90
53152;DHT22;39234;53.158;6.322;2023-04-29T02:57:55;7.70;99.90
53152;DHT22;39234;53.158;6.322;2023-04-29T03:00:21;8.10;99.90
53152;DHT22;39234;53.158;6.322;2023-04-29T03:02:48;8.10;99.90
53152;DHT22;39234;53.158;6.322;2023-04-29T03:05:13;8.00;99.90
53152;DHT22;39234;53.158;6.322;2023-04-29T03:07:40;8.80;99.90
53152;DHT22;39234;53.158;6.322;2023-04-29T03:10:06;9.00;99.90
53152;DHT22;39234;53.158;6.322;2023-04-29T03:12:32;8.00;99.90
53152;DHT22;39234;53.158;6.322;2023-04-29T03:14:59;8.00;99.90
53152;DHT22;39234;53.158;6.322;2023-04-29T03:17:25;7.90;99.90
53152;DHT22;39234;53.158;6.322;2023-04-29T03:19:51;7.80;99.90
53152;DHT22;39234;53.158;6.322;2023-04-29T03:22:18;7.90;99.90
53152;DHT22;39234;53.158;6.322;2023-04-29T03:24:44;8.00;99.90
53152;DHT22;39234;53.158;6.322;2023-04-29T03:27:10;8.00;99.90
53152;DHT22;39234;53.158;6.322;2023-04-29T03:29:36;7.90;99.90
53152;DHT22;39234;53.158;6.322;2023-04-29T03:32:02;8.00;99.90
53152;DHT22;39234;53.158;6.322;2023-04-29T03:34:28;8.10;99.90
53152;DHT22;39234;53.158;6.322;2023-04-29T03:36:54;7.90;99.90
53152;DHT22;39234;53.158;6.322;2023-04-29T03:39:20;7.90;99.90
53152;DHT22;39234;53.158;6.322;2023-04-29T03:41:46;7.90;99.90
53152;DHT22;39234;53.158;6.322;2023-04-29T03:44:12;7.90;99.90
53152;DHT22;39234;53.158;6.322;2023-04-29T03:46:38;7.80;99.90
53152;DHT22;39234;53.158;6.322;2023-04-29T03:49:04;7.80;99.90
53152;DHT22;39234;53.158;6.322;2023-04-29T03:51:29;8.10;99.90
53152;DHT22;39234;53.158;6.322;2023-04-29T03:53:55;8.90;99.90
53152;DHT22;39234;53.158;6.322;2023-04-29T03:56:22;8.10;99.90
53152;DHT22;39234;53.158;6.322;2023-04-29T03:58:51;9.30;99.90
53152;DHT22;39234;53.158;6.322;2023-04-29T04:01:17;8.30;99.90
53152;DHT22;39234;53.158;6.322;2023-04-29T04:03:42;8.00;99.90
53152;DHT22;39234;53.158;6.322;2023-04-29T04:06:08;8.20;99.90
53152;DHT22;39234;53.158;6.322;2023-04-29T04:08:34;8.10;99.90
53152;DHT22;39234;53.158;6.322;2023-04-29T04:11:00;8.20;99.90
53152;DHT22;39234;53.158;6.322;2023-04-29T04:13:30;7.90;99.90
53152;DHT22;39234;53.158;6.322;2023-04-29T04:15:56;8.00;99.90
53152;DHT22;39234;53.158;6.322;2023-04-29T04:18:22;8.10;99.90
53152;DHT22;39234;53.158;6.322;2023-04-29T04:20:48;8.00;99.90
53152;DHT22;39234;53.158;6.322;2023-04-29T04:23:14;8.00;99.90
53152;DHT22;39234;53.158;6.322;2023-04-29T04:25:47;8.10;99.90
53152;DHT22;39234;53.158;6.322;2023-04-29T04:28:13;7.90;99.90
53152;DHT22;39234;53.158;6.322;2023-04-29T04:30:39;8.20;99.90
53152;DHT22;39234;53.158;6.322;2023-04-29T04:33:05;8.00;99.90
53152;DHT22;39234;53.158;6.322;2023-04-29T04:35:31;7.90;99.90
53152;DHT22;39234;53.158;6.322;2023-04-29T04:37:56;8.00;99.90
53152;DHT22;39234;53.158;6.322;2023-04-29T04:40:23;8.10;99.90
53152;DHT22;39234;53.158;6.322;2023-04-29T04:42:49;8.10;99.90
53152;DHT22;39234;53.158;6.322;2023-04-29T04:45:14;9.20;99.90
53152;DHT22;39234;53.158;6.322;2023-04-29T04:47:40;7.40;99.90
53152;DHT22;39234;53.158;6.322;2023-04-29T04:50:07;8.00;99.90
53152;DHT22;39234;53.158;6.322;2023-04-29T04:52:33;8.10;99.90
53152;DHT22;39234;53.158;6.322;2023-04-29T04:54:59;8.00;99.90
53152;DHT22;39234;53.158;6.322;2023-04-29T04:57:25;8.10;99.90
53152;DHT22;39234;53.158;6.322;2023-04-29T04:59:51;8.10;99.90
53152;DHT22;39234;53.158;6.322;2023-04-29T05:02:17;8.50;99.90
53152;DHT22;39234;53.158;6.322;2023-04-29T05:04:42;8.10;99.90
53152;DHT22;39234;53.158;6.322;2023-04-29T05:07:09;8.10;99.90
53152;DHT22;39234;53.158;6.322;2023-04-29T05:09:35;8.10;99.90
53152;DHT22;39234;53.158;6.322;2023-04-29T05:12:01;8.20;99.90
53152;DHT22;39234;53.158;6.322;2023-04-29T05:14:27;8.30;99.90
53152;DHT22;39234;53.158;6.322;2023-04-29T05:16:58;8.30;99.90
53152;DHT22;39234;53.158;6.322;2023-04-29T05:19:23;8.20;99.90
53152;DHT22;39234;53.158;6.322;2023-04-29T05:21:49;9.00;99.90
53152;DHT22;39234;53.158;6.322;2023-04-29T05:24:15;8.20;99.90
53152;DHT22;39234;53.158;6.322;2023-04-29T05:26:41;9.80;99.90
53152;DHT22;39234;53.158;6.322;2023-04-29T05:29:11;8.30;99.90
53152;DHT22;39234;53.158;6.322;2023-04-29T05:31:37;8.40;99.90
53152;DHT22;39234;53.158;6.322;2023-04-29T05:34:06;8.20;99.90
53152;DHT22;39234;53.158;6.322;2023-04-29T05:36:34;8.30;99.90
53152;DHT22;39234;53.158;6.322;2023-04-29T05:39:00;8.30;99.90
53152;DHT22;39234;53.158;6.322;2023-04-29T05:41:25;8.60;99.90
53152;DHT22;39234;53.158;6.322;2023-04-29T05:43:51;8.50;99.90
53152;DHT22;39234;53.158;6.322;2023-04-29T05:46:17;8.50;99.90
53152;DHT22;39234;53.158;6.322;2023-04-29T05:48:44;10.10;99.90
53152;DHT22;39234;53.158;6.322;2023-04-29T05:51:11;8.70;99.90
53152;DHT22;39234;53.158;6.322;2023-04-29T05:53:37;8.60;99.90
53152;DHT22;39234;53.158;6.322;2023-04-29T05:56:05;6.90;99.90
53152;DHT22;39234;53.158;6.322;2023-04-29T05:58:33;9.10;99.90
53152;DHT22;39234;53.158;6.322;2023-04-29T06:00:59;9.40;99.90
53152;DHT22;39234;53.158;6.322;2023-04-29T06:03:25;9.60;99.90
53152;DHT22;39234;53.158;6.322;2023-04-29T06:05:52;10.30;99.90
53152;DHT22;39234;53.158;6.322;2023-04-29T06:08:18;10.70;99.90
53152;DHT22;39234;53.158;6.322;2023-04-29T06:10:44;10.90;99.90
53152;DHT22;39234;53.158;6.322;2023-04-29T06:13:10;11.90;99.90
53152;DHT22;39234;53.158;6.322;2023-04-29T06:15:36;12.60;99.90
53152;DHT22;39234;53.158;6.322;2023-04-29T06:18:02;13.00;99.90
53152;DHT22;39234;53.158;6.322;2023-04-29T06:20:28;13.70;99.90
53152;DHT22;39234;53.158;6.322;2023-04-29T06:22:54;14.10;99.90
53152;DHT22;39234;53.158;6.322;2023-04-29T06:25:20;14.70;99.90
53152;DHT22;39234;53.158;6.322;2023-04-29T06:27:46;14.80;99.90
53152;DHT22;39234;53.158;6.322;2023-04-29T06:30:12;15.30;99.90
53152;DHT22;39234;53.158;6.322;2023-04-29T06:32:38;15.10;99.90
53152;DHT22;39234;53.158;6.322;2023-04-29T06:35:04;15.50;99.90
53152;DHT22;39234;53.158;6.322;2023-04-29T06:37:30;15.50;99.90
53152;DHT22;39234;53.158;6.322;2023-04-29T06:39:56;15.70;99.90
53152;DHT22;39234;53.158;6.322;2023-04-29T06:42:22;15.90;99.90
53152;DHT22;39234;53.158;6.322;2023-04-29T06:44:47;15.60;99.90
53152;DHT22;39234;53.158;6.322;2023-04-29T06:47:13;15.70;99.90
53152;DHT22;39234;53.158;6.322;2023-04-29T06:49:39;16.20;99.90
53152;DHT22;39234;53.158;6.322;2023-04-29T06:52:05;17.20;99.90
53152;DHT22;39234;53.158;6.322;2023-04-29T06:54:32;17.90;99.90
53152;DHT22;39234;53.158;6.322;2023-04-29T06:56:58;18.70;99.90
53152;DHT22;39234;53.158;6.322;2023-04-29T06:59:24;19.50;99.90
53152;DHT22;39234;53.158;6.322;2023-04-29T07:01:49;20.00;99.90
53152;DHT22;39234;53.158;6.322;2023-04-29T07:04:16;20.30;99.90
53152;DHT22;39234;53.158;6.322;2023-04-29T07:06:42;20.70;99.90
53152;DHT22;39234;53.158;6.322;2023-04-29T07:09:11;21.00;99.90
53152;DHT22;39234;53.158;6.322;2023-04-29T07:11:38;21.30;99.90
53152;DHT22;39234;53.158;6.322;2023-04-29T07:14:05;20.60;99.90
53152;DHT22;39234;53.158;6.322;2023-04-29T07:16:32;21.10;99.90
53152;DHT22;39234;53.158;6.322;2023-04-29T07:18:58;21.50;99.90
53152;DHT22;39234;53.158;6.322;2023-04-29T07:21:24;21.70;99.90
53152;DHT22;39234;53.158;6.322;2023-04-29T07:23:50;22.20;99.90
53152;DHT22;39234;53.158;6.322;2023-04-29T07:26:16;22.00;99.90
53152;DHT22;39234;53.158;6.322;2023-04-29T07:28:43;21.80;99.90
53152;DHT22;39234;53.158;6.322;2023-04-29T07:31:09;22.20;99.90
53152;DHT22;39234;53.158;6.322;2023-04-29T07:33:36;22.00;99.90
53152;DHT22;39234;53.158;6.322;2023-04-29T07:36:02;22.40;99.90
53152;DHT22;39234;53.158;6.322;2023-04-29T07:38:28;22.40;99.90
53152;DHT22;39234;53.158;6.322;2023-04-29T07:40:54;22.40;99.90
53152;DHT22;39234;53.158;6.322;2023-04-29T07:43:20;22.10;99.90
53152;DHT22;39234;53.158;6.322;2023-04-29T07:45:46;21.30;99.90
53152;DHT22;39234;53.158;6.322;2023-04-29T07:48:12;20.60;99.90
53152;DHT22;39234;53.158;6.322;2023-04-29T07:50:38;19.80;99.90
53152;DHT22;39234;53.158;6.322;2023-04-29T07:53:04;19.00;99.90
53152;DHT22;39234;53.158;6.322;2023-04-29T07:55:30;19.00;99.90
53152;DHT22;39234;53.158;6.322;2023-04-29T07:57:57;18.50;99.90
53152;DHT22;39234;53.158;6.322;2023-04-29T08:00:23;18.10;99.90
53152;DHT22;39234;53.158;6.322;2023-04-29T08:02:55;17.80;99.90
53152;DHT22;39234;53.158;6.322;2023-04-29T08:05:22;17.50;99.90
53152;DHT22;39234;53.158;6.322;2023-04-29T08:07:48;17.20;99.90
53152;DHT22;39234;53.158;6.322;2023-04-29T08:10:15;16.90;99.90
53152;DHT22;39234;53.158;6.322;2023-04-29T08:12:44;16.30;99.90
53152;DHT22;39234;53.158;6.322;2023-04-29T08:15:10;16.10;99.90
53152;DHT22;39234;53.158;6.322;2023-04-29T08:17:36;15.70;99.90
53152;DHT22;39234;53.158;6.322;2023-04-29T08:20:01;15.80;99.90
53152;DHT22;39234;53.158;6.322;2023-04-29T08:22:27;15.80;99.90
53152;DHT22;39234;53.158;6.322;2023-04-29T08:24:53;15.80;99.90
53152;DHT22;39234;53.158;6.322;2023-04-29T08:27:19;15.70;99.90
53152;DHT22;39234;53.158;6.322;2023-04-29T08:29:46;16.40;99.90
53152;DHT22;39234;53.158;6.322;2023-04-29T08:32:12;17.30;99.90
53152;DHT22;39234;53.158;6.322;2023-04-29T08:34:38;17.60;99.90
53152;DHT22;39234;53.158;6.322;2023-04-29T08:37:06;17.50;99.90
53152;DHT22;39234;53.158;6.322;2023-04-29T08:39:31;17.40;99.90
53152;DHT22;39234;53.158;6.322;2023-04-29T08:41:57;17.20;99.90
53152;DHT22;39234;53.158;6.322;2023-04-29T08:44:27;16.80;99.90
53152;DHT22;39234;53.158;6.322;2023-04-29T08:46:53;16.60;99.90
53152;DHT22;39234;53.158;6.322;2023-04-29T08:49:20;16.60;99.90
53152;DHT22;39234;53.158;6.322;2023-04-29T08:51:49;16.60;99.90
53152;DHT22;39234;53.158;6.322;2023-04-29T08:54:16;16.70;99.90
53152;DHT22;39234;53.158;6.322;2023-04-29T08:56:45;16.60;99.90
53152;DHT22;39234;53.158;6.322;2023-04-29T08:59:14;16.80;99.90
53152;DHT22;39234;53.158;6.322;2023-04-29T09:01:42;16.90;99.90
53152;DHT22;39234;53.158;6.322;2023-04-29T09:04:14;17.10;99.90
53152;DHT22;39234;53.158;6.322;2023-04-29T09:06:43;16.80;99.90
53152;DHT22;39234;53.158;6.322;2023-04-29T09:09:10;16.80;99.90
53152;DHT22;39234;53.158;6.322;2023-04-29T09:11:36;17.20;99.90
53152;DHT22;39234;53.158;6.322;2023-04-29T09:14:02;17.40;99.90
53152;DHT22;39234;53.158;6.322;2023-04-29T09:16:29;17.60;99.90
53152;DHT22;39234;53.158;6.322;2023-04-29T09:18:55;17.50;99.90
53152;DHT22;39234;53.158;6.322;2023-04-29T09:21:26;17.30;99.90
53152;DHT22;39234;53.158;6.322;2023-04-29T09:23:53;17.50;99.90
53152;DHT22;39234;53.158;6.322;2023-04-29T09:26:19;17.60;99.90
53152;DHT22;39234;53.158;6.322;2023-04-29T09:28:45;17.50;99.90
53152;DHT22;39234;53.158;6.322;2023-04-29T09:31:12;17.00;99.90
53152;DHT22;39234;53.158;6.322;2023-04-29T09:33:52;16.20;99.90
53152;DHT22;39234;53.158;6.322;2023-04-29T09:39:11;16.10;99.90
53152;DHT22;39234;53.158;6.322;2023-04-29T09:41:55;16.10;99.90
53152;DHT22;39234;53.158;6.322;2023-04-29T09:44:25;15.80;99.90
53152;DHT22;39234;53.158;6.322;2023-04-29T09:46:55;15.90;99.90
53152;DHT22;39234;53.158;6.322;2023-04-29T09:52:06;16.10;99.90
53152;DHT22;39234;53.158;6.322;2023-04-29T09:54:34;16.30;99.90
53152;DHT22;39234;53.158;6.322;2023-04-29T09:57:01;16.40;99.90
53152;DHT22;39234;53.158;6.322;2023-04-29T09:59:31;16.60;99.90
53152;DHT22;39234;53.158;6.322;2023-04-29T10:01:58;16.30;99.90
53152;DHT22;39234;53.158;6.322;2023-04-29T10:04:25;16.20;99.90
53152;DHT22;39234;53.158;6.322;2023-04-29T10:06:53;16.30;99.90
53152;DHT22;39234;53.158;6.322;2023-04-29T10:09:20;16.10;99.90
53152;DHT22;39234;53.158;6.322;2023-04-29T10:11:51;16.00;99.90
53152;DHT22;39234;53.158;6.322;2023-04-29T10:14:19;16.20;99.90
53152;DHT22;39234;53.158;6.322;2023-04-29T10:16:53;16.40;99.90
53152;DHT22;39234;53.158;6.322;2023-04-29T10:19:32;16.50;99.90
53152;DHT22;39234;53.158;6.322;2023-04-29T10:22:18;16.40;99.90
53152;DHT22;39234;53.158;6.322;2023-04-29T10:24:47;16.60;99.90
53152;DHT22;39234;53.158;6.322;2023-04-29T10:27:14;16.60;99.90
53152;DHT22;39234;53.158;6.322;2023-04-29T10:29:40;16.70;99.90
53152;DHT22;39234;53.158;6.322;2023-04-29T10:32:08;16.80;99.90
53152;DHT22;39234;53.158;6.322;2023-04-29T10:34:36;16.90;99.90
53152;DHT22;39234;53.158;6.322;2023-04-29T10:37:06;16.90;99.90
53152;DHT22;39234;53.158;6.322;2023-04-29T10:39:46;17.30;99.90
53152;DHT22;39234;53.158;6.322;2023-04-29T10:42:46;17.00;99.90
53152;DHT22;39234;53.158;6.322;2023-04-29T10:53:16;16.70;99.90
53152;DHT22;39234;53.158;6.322;2023-04-29T10:55:45;16.80;99.90
53152;DHT22;39234;53.158;6.322;2023-04-29T10:58:33;16.90;99.90
53152;DHT22;39234;53.158;6.322;2023-04-29T11:00:59;17.20;99.90
53152;DHT22;39234;53.158;6.322;2023-04-29T11:06:14;17.10;99.90
53152;DHT22;39234;53.158;6.322;2023-04-29T11:08:40;17.30;99.90
53152;DHT22;39234;53.158;6.322;2023-04-29T11:11:07;17.00;99.90
53152;DHT22;39234;53.158;6.322;2023-04-29T11:13:38;17.00;99.90
53152;DHT22;39234;53.158;6.322;2023-04-29T11:16:11;17.00;99.90
53152;DHT22;39234;53.158;6.322;2023-04-29T11:19:03;17.00;99.90
53152;DHT22;39234;53.158;6.322;2023-04-29T11:21:29;17.30;99.90
53152;DHT22;39234;53.158;6.322;2023-04-29T11:23:57;17.00;99.90
53152;DHT22;39234;53.158;6.322;2023-04-29T11:26:23;16.80;99.90
53152;DHT22;39234;53.158;6.322;2023-04-29T11:28:50;16.70;99.90
53152;DHT22;39234;53.158;6.322;2023-04-29T11:31:17;16.70;99.90
53152;DHT22;39234;53.158;6.322;2023-04-29T11:33:43;16.80;99.90
53152;DHT22;39234;53.158;6.322;2023-04-29T11:36:10;16.70;99.90
53152;DHT22;39234;53.158;6.322;2023-04-29T11:38:39;16.50;99.90
53152;DHT22;39234;53.158;6.322;2023-04-29T11:41:05;16.80;99.90
53152;DHT22;39234;53.158;6.322;2023-04-29T11:43:31;16.90;99.90
53152;DHT22;39234;53.158;6.322;2023-04-29T11:45:57;16.90;99.90
53152;DHT22;39234;53.158;6.322;2023-04-29T11:48:24;16.60;99.90
53152;DHT22;39234;53.158;6.322;2023-04-29T11:50:56;16.70;99.90
53152;DHT22;39234;53.158;6.322;2023-04-29T11:53:24;16.90;99.90
53152;DHT22;39234;53.158;6.322;2023-04-29T11:55:52;16.80;99.90
53152;DHT22;39234;53.158;6.322;2023-04-29T11:58:22;16.70;99.90
53152;DHT22;39234;53.158;6.322;2023-04-29T12:00:48;17.00;99.90
53152;DHT22;39234;53.158;6.322;2023-04-29T12:03:18;17.00;99.90
53152;DHT22;39234;53.158;6.322;2023-04-29T12:05:52;17.00;99.90
53152;DHT22;39234;53.158;6.322;2023-04-29T12:10:47;16.90;99.90
53152;DHT22;39234;53.158;6.322;2023-04-29T12:13:17;17.00;99.90
53152;DHT22;39234;53.158;6.322;2023-04-29T12:15:47;17.00;99.90
53152;DHT22;39234;53.158;6.322;2023-04-29T12:18:16;16.80;99.90
53152;DHT22;39234;53.158;6.322;2023-04-29T12:20:43;16.80;99.90
53152;DHT22;39234;53.158;6.322;2023-04-29T12:23:16;16.90;99.90
53152;DHT22;39234;53.158;6.322;2023-04-29T12:25:56;16.60;99.90
53152;DHT22;39234;53.158;6.322;2023-04-29T12:28:22;16.50;99.90
53152;DHT22;39234;53.158;6.322;2023-04-29T12:30:50;16.60;99.90
53152;DHT22;39234;53.158;6.322;2023-04-29T12:33:25;16.50;99.90
53152;DHT22;39234;53.158;6.322;2023-04-29T12:35:55;16.60;99.90
53152;DHT22;39234;53.158;6.322;2023-04-29T12:38:29;16.60;99.90
53152;DHT22;39234;53.158;6.322;2023-04-29T12:40:59;16.50;99.90
53152;DHT22;39234;53.158;6.322;2023-04-29T12:43:30;16.40;99.90
53152;DHT22;39234;53.158;6.322;2023-04-29T12:46:06;16.50;99.90
53152;DHT22;39234;53.158;6.322;2023-04-29T12:48:33;16.40;99.90
53152;DHT22;39234;53.158;6.322;2023-04-29T12:51:03;16.10;99.90
53152;DHT22;39234;53.158;6.322;2023-04-29T12:53:29;16.20;99.90
53152;DHT22;39234;53.158;6.322;2023-04-29T12:55:56;16.20;99.90
53152;DHT22;39234;53.158;6.322;2023-04-29T12:58:22;16.00;99.90
53152;DHT22;39234;53.158;6.322;2023-04-29T13:00:48;16.20;99.90
53152;DHT22;39234;53.158;6.322;2023-04-29T13:03:14;16.20;99.90
53152;DHT22;39234;53.158;6.322;2023-04-29T13:05:40;16.40;99.90
53152;DHT22;39234;53.158;6.322;2023-04-29T13:08:06;16.50;99.90
53152;DHT22;39234;53.158;6.322;2023-04-29T13:10:33;16.20;99.90
53152;DHT22;39234;53.158;6.322;2023-04-29T13:12:59;16.30;99.90
53152;DHT22;39234;53.158;6.322;2023-04-29T13:15:25;16.20;99.90
53152;DHT22;39234;53.158;6.322;2023-04-29T13:17:52;16.20;99.90
53152;DHT22;39234;53.158;6.322;2023-04-29T13:20:18;16.20;99.90
53152;DHT22;39234;53.158;6.322;2023-04-29T13:22:43;16.10;99.90
53152;DHT22;39234;53.158;6.322;2023-04-29T13:25:10;16.00;99.90
53152;DHT22;39234;53.158;6.322;2023-04-29T13:27:37;16.00;99.90
53152;DHT22;39234;53.158;6.322;2023-04-29T13:30:07;15.90;99.90
53152;DHT22;39234;53.158;6.322;2023-04-29T13:32:33;15.80;99.90
53152;DHT22;39234;53.158;6.322;2023-04-29T13:34:59;15.90;99.90
53152;DHT22;39234;53.158;6.322;2023-04-29T13:37:25;16.10;99.90
53152;DHT22;39234;53.158;6.322;2023-04-29T13:39:51;16.10;99.90
53152;DHT22;39234;53.158;6.322;2023-04-29T13:42:17;15.90;99.90
53152;DHT22;39234;53.158;6.322;2023-04-29T13:44:43;15.90;99.90
53152;DHT22;39234;53.158;6.322;2023-04-29T13:47:14;15.80;99.90
53152;DHT22;39234;53.158;6.322;2023-04-29T13:49:41;15.80;99.90
53152;DHT22;39234;53.158;6.322;2023-04-29T13:52:09;15.80;99.90
53152;DHT22;39234;53.158;6.322;2023-04-29T13:54:35;15.60;99.90
53152;DHT22;39234;53.158;6.322;2023-04-29T13:57:01;15.60;99.90
53152;DHT22;39234;53.158;6.322;2023-04-29T13:59:29;15.60;99.90
53152;DHT22;39234;53.158;6.322;2023-04-29T14:01:56;15.60;99.90
53152;DHT22;39234;53.158;6.322;2023-04-29T14:04:23;15.50;99.90
53152;DHT22;39234;53.158;6.322;2023-04-29T14:06:48;15.70;99.90
53152;DHT22;39234;53.158;6.322;2023-04-29T14:09:14;15.50;99.90
53152;DHT22;39234;53.158;6.322;2023-04-29T14:11:41;15.10;99.90
53152;DHT22;39234;53.158;6.322;2023-04-29T14:14:07;15.20;99.90
53152;DHT22;39234;53.158;6.322;2023-04-29T14:16:33;15.20;99.90
53152;DHT22;39234;53.158;6.322;2023-04-29T14:18:58;15.20;99.90
53152;DHT22;39234;53.158;6.322;2023-04-29T14:21:24;15.20;99.90
53152;DHT22;39234;53.158;6.322;2023-04-29T14:23:50;15.10;99.90
53152;DHT22;39234;53.158;6.322;2023-04-29T14:26:16;15.20;99.90
53152;DHT22;39234;53.158;6.322;2023-04-29T14:28:42;15.30;99.90
53152;DHT22;39234;53.158;6.322;2023-04-29T14:31:07;15.30;99.90
53152;DHT22;39234;53.158;6.322;2023-04-29T14:33:33;15.20;99.90
53152;DHT22;39234;53.158;6.322;2023-04-29T14:35:59;15.00;99.90
53152;DHT22;39234;53.158;6.322;2023-04-29T14:38:28;15.00;99.90
53152;DHT22;39234;53.158;6.322;2023-04-29T14:40:53;14.90;99.90
53152;DHT22;39234;53.158;6.322;2023-04-29T14:43:19;14.90;99.90
53152;DHT22;39234;53.158;6.322;2023-04-29T14:45:45;14.80;99.90
53152;DHT22;39234;53.158;6.322;2023-04-29T14:48:11;15.00;99.90
53152;DHT22;39234;53.158;6.322;2023-04-29T14:50:36;14.90;99.90
53152;DHT22;39234;53.158;6.322;2023-04-29T14:53:02;14.70;99.90
53152;DHT22;39234;53.158;6.322;2023-04-29T14:55:28;14.90;99.90
53152;DHT22;39234;53.158;6.322;2023-04-29T14:57:54;14.60;99.90
53152;DHT22;39234;53.158;6.322;2023-04-29T15:00:20;14.60;99.90
53152;DHT22;39234;53.158;6.322;2023-04-29T15:02:46;14.60;99.90
53152;DHT22;39234;53.158;6.322;2023-04-29T15:05:14;14.30;99.90
53152;DHT22;39234;53.158;6.322;2023-04-29T15:07:39;14.30;99.90
53152;DHT22;39234;53.158;6.322;2023-04-29T15:10:06;14.10;99.90
53152;DHT22;39234;53.158;6.322;2023-04-29T15:12:33;14.20;99.90
53152;DHT22;39234;53.158;6.322;2023-04-29T15:14:59;14.00;99.90
53152;DHT22;39234;53.158;6.322;2023-04-29T15:17:25;14.10;99.90
53152;DHT22;39234;53.158;6.322;2023-04-29T15:19:51;14.30;99.90
53152;DHT22;39234;53.158;6.322;2023-04-29T15:22:16;14.30;99.90
53152;DHT22;39234;53.158;6.322;2023-04-29T15:24:42;14.20;99.90
53152;DHT22;39234;53.158;6.322;2023-04-29T15:27:08;14.30;99.90
53152;DHT22;39234;53.158;6.322;2023-04-29T15:29:33;14.40;99.90
53152;DHT22;39234;53.158;6.322;2023-04-29T15:32:01;14.20;99.90
53152;DHT22;39234;53.158;6.322;2023-04-29T15:34:27;14.30;99.90
53152;DHT22;39234;53.158;6.322;2023-04-29T15:36:53;14.30;99.90
53152;DHT22;39234;53.158;6.322;2023-04-29T15:39:20;14.10;99.90
53152;DHT22;39234;53.158;6.322;2023-04-29T15:41:46;14.10;99.90
53152;DHT22;39234;53.158;6.322;2023-04-29T15:44:12;13.90;99.90
53152;DHT22;39234;53.158;6.322;2023-04-29T15:46:38;14.00;99.90
53152;DHT22;39234;53.158;6.322;2023-04-29T15:49:04;14.20;99.90
53152;DHT22;39234;53.158;6.322;2023-04-29T15:51:31;13.90;99.90
53152;DHT22;39234;53.158;6.322;2023-04-29T15:53:57;13.70;99.90
53152;DHT22;39234;53.158;6.322;2023-04-29T15:56:23;13.80;99.90
53152;DHT22;39234;53.158;6.322;2023-04-29T15:58:50;13.80;99.90
53152;DHT22;39234;53.158;6.322;2023-04-29T16:01:16;13.50;99.90
53152;DHT22;39234;53.158;6.322;2023-04-29T16:03:41;13.30;99.90